Terminal Aerodrome Forecast
Issued by NWS

Home | Current Version | Previous Version | Text Only | Print | Product List | Glossary On
Versions: 1 2 3 4 5 6 7 8 9 10 11 12
000
FTUS45 KRIW 262322
TAFWRL
TAF
KWRL 262322Z 2700/2724 16006KT P6SM SCT120
     FM271000 17006KT P6SM BKN100
     FM271500 VRB05KT P6SM BKN100
     FM272100 30011KT P6SM VCTS SCT080CB BKN120=

USA.gov is the U.S. government's official web portal to all federal, state and local government web resources and services.